AFR88UZ LFPG-LMML
Flight info
| Callsign | AFR88UZ |
|---|---|
| Flight time | 2h 17m |
| Altitude | 33000 |
| Route | OKASI DCT OKEKO DCT MOU DCT MADIV DCT MOKIP DCT TUFTA DCT KOGAS DCT MEDAM DCT NITAM DCT MOGBO DCT TIDKA DCT KONER DCT RONAB DCT GIANO DCT MARON DCT EKOLA L12 GZO |
| Aircraft | A321/M-SDE3FGHIRWY/LB1 |
Departure
| Time | 2026-05-08 14:21 |
|---|---|
| Airport | Charles de Gaulle International Airport (LFPG) |
Arrival
| Time | 2026-05-08 16:38 |
|---|---|
| Airport | Malta International Airport (LMML) |
| Time | Latitude | Longitude | Altitude | Speed | Heading |
|---|---|---|---|---|---|
| 2026-05-08 13:57 | 49.00664 | 2.57773 | 354 ft | 0 kts | 121° |
| 2026-05-08 14:04 | 49.00667 | 2.57766 | 360 ft | 2 kts | 122° |
| 2026-05-08 14:04 | 49.00678 | 2.57741 | 362 ft | 3 kts | 127° |
| 2026-05-08 14:05 | 49.00689 | 2.57717 | 359 ft | 3 kts | 121° |
| 2026-05-08 14:05 | 49.00697 | 2.57694 | 356 ft | 3 kts | 82° |
| 2026-05-08 14:05 | 49.00694 | 2.57680 | 362 ft | 2 kts | 54° |
| 2026-05-08 14:05 | 49.00684 | 2.57661 | 359 ft | 3 kts | 30° |
| 2026-05-08 14:06 | 49.00670 | 2.57654 | 358 ft | 3 kts | 339° |
| 2026-05-08 14:06 | 49.00653 | 2.57667 | 358 ft | 3 kts | 340° |
| 2026-05-08 14:06 | 49.00642 | 2.57672 | 360 ft | 0 kts | 357° |
| 2026-05-08 14:13 | 49.00695 | 2.57668 | 354 ft | 17 kts | 357° |
| 2026-05-08 14:13 | 49.00774 | 2.57629 | 364 ft | 10 kts | 327° |
| 2026-05-08 14:14 | 49.00822 | 2.57574 | 356 ft | 8 kts | 334° |
| 2026-05-08 14:14 | 49.00865 | 2.57542 | 358 ft | 6 kts | 319° |
| 2026-05-08 14:14 | 49.00872 | 2.57490 | 360 ft | 7 kts | 275° |
| 2026-05-08 14:14 | 49.00862 | 2.57284 | 357 ft | 27 kts | 265° |
| 2026-05-08 14:15 | 49.00848 | 2.56998 | 357 ft | 26 kts | 266° |
| 2026-05-08 14:15 | 49.00836 | 2.56727 | 355 ft | 25 kts | 266° |
| 2026-05-08 14:15 | 49.00819 | 2.56472 | 359 ft | 23 kts | 260° |
| 2026-05-08 14:15 | 49.00796 | 2.56233 | 355 ft | 22 kts | 262° |
| 2026-05-08 14:16 | 49.00777 | 2.56009 | 362 ft | 21 kts | 261° |
| 2026-05-08 14:16 | 49.00756 | 2.55803 | 355 ft | 19 kts | 262° |
| 2026-05-08 14:16 | 49.00742 | 2.55627 | 357 ft | 16 kts | 263° |
| 2026-05-08 14:16 | 49.00731 | 2.55471 | 358 ft | 14 kts | 264° |
| 2026-05-08 14:17 | 49.00714 | 2.55333 | 360 ft | 13 kts | 248° |
| 2026-05-08 14:17 | 49.00604 | 2.55264 | 355 ft | 25 kts | 154° |
| 2026-05-08 14:17 | 49.00436 | 2.55332 | 361 ft | 25 kts | 163° |
| 2026-05-08 14:17 | 49.00277 | 2.55405 | 355 ft | 23 kts | 163° |
| 2026-05-08 14:18 | 49.00126 | 2.55470 | 359 ft | 22 kts | 164° |
| 2026-05-08 14:18 | 48.99983 | 2.55532 | 360 ft | 21 kts | 164° |
| 2026-05-08 14:18 | 48.99869 | 2.55633 | 356 ft | 19 kts | 126° |
| 2026-05-08 14:18 | 48.99806 | 2.55791 | 359 ft | 16 kts | 147° |
| 2026-05-08 14:19 | 48.99702 | 2.55816 | 358 ft | 15 kts | 176° |
| 2026-05-08 14:19 | 48.99616 | 2.55860 | 358 ft | 13 kts | 124° |
| 2026-05-08 14:19 | 48.99608 | 2.55947 | 353 ft | 0 kts | 87° |
| 2026-05-08 14:20 | 48.99609 | 2.55968 | 354 ft | 12 kts | 87° |
| 2026-05-08 14:20 | 48.99633 | 2.56470 | 355 ft | 81 kts | 84° |
| 2026-05-08 14:20 | 48.99699 | 2.57614 | 358 ft | 134 kts | 85° |
| 2026-05-08 14:20 | 48.99797 | 2.59249 | 356 ft | 174 kts | 84° |
| 2026-05-08 14:21 | 48.99898 | 2.61123 | 857 ft | 175 kts | 84° |
| 2026-05-08 14:21 | 48.99988 | 2.62956 | 1553 ft | 173 kts | 85° |
| 2026-05-08 14:21 | 49.00076 | 2.64795 | 2113 ft | 176 kts | 86° |
| 2026-05-08 14:21 | 49.00172 | 2.66721 | 2523 ft | 192 kts | 85° |
| 2026-05-08 14:22 | 49.00287 | 2.68865 | 2728 ft | 215 kts | 85° |
| 2026-05-08 14:22 | 49.00415 | 2.71254 | 2985 ft | 238 kts | 85° |
| 2026-05-08 14:22 | 49.00554 | 2.73884 | 3415 ft | 256 kts | 85° |
| 2026-05-08 14:22 | 49.00694 | 2.76584 | 4128 ft | 260 kts | 85° |
| 2026-05-08 14:23 | 49.00623 | 2.79357 | 4855 ft | 264 kts | 97° |
| 2026-05-08 14:23 | 49.00448 | 2.81197 | 5326 ft | 266 kts | 99° |
| 2026-05-08 14:23 | 49.00149 | 2.84004 | 6056 ft | 269 kts | 99° |
| 2026-05-08 14:23 | 48.99833 | 2.86833 | 6732 ft | 273 kts | 99° |
| 2026-05-08 14:24 | 48.99512 | 2.89703 | 7375 ft | 277 kts | 100° |
| 2026-05-08 14:24 | 48.99193 | 2.92619 | 8015 ft | 281 kts | 100° |
| 2026-05-08 14:24 | 48.98875 | 2.95585 | 8644 ft | 285 kts | 101° |
| 2026-05-08 14:24 | 48.98210 | 2.98408 | 9270 ft | 286 kts | 126° |
| 2026-05-08 14:25 | 48.96804 | 3.00478 | 9877 ft | 286 kts | 152° |
| 2026-05-08 14:25 | 48.94933 | 3.01443 | 10442 ft | 286 kts | 176° |
| 2026-05-08 14:25 | 48.92954 | 3.01166 | 10850 ft | 294 kts | 199° |
| 2026-05-08 14:25 | 48.91085 | 2.99701 | 10994 ft | 311 kts | 212° |
| 2026-05-08 14:26 | 48.89212 | 2.97959 | 11393 ft | 320 kts | 212° |
| 2026-05-08 14:26 | 48.87304 | 2.96177 | 11956 ft | 323 kts | 212° |
| 2026-05-08 14:26 | 48.85382 | 2.94384 | 12581 ft | 325 kts | 212° |
| 2026-05-08 14:26 | 48.83442 | 2.92579 | 13202 ft | 327 kts | 212° |
| 2026-05-08 14:27 | 48.81492 | 2.90774 | 13838 ft | 329 kts | 212° |
| 2026-05-08 14:27 | 48.79527 | 2.88967 | 14390 ft | 331 kts | 212° |
| 2026-05-08 14:27 | 48.77542 | 2.87148 | 14910 ft | 334 kts | 212° |
| 2026-05-08 14:27 | 48.75542 | 2.85313 | 15434 ft | 337 kts | 212° |
| 2026-05-08 14:28 | 48.73525 | 2.83463 | 15962 ft | 339 kts | 212° |
| 2026-05-08 14:28 | 48.71495 | 2.81604 | 16488 ft | 342 kts | 212° |
| 2026-05-08 14:28 | 48.69454 | 2.79736 | 17009 ft | 344 kts | 212° |
| 2026-05-08 14:28 | 48.67420 | 2.77876 | 17511 ft | 347 kts | 212° |
| 2026-05-08 14:29 | 48.65343 | 2.75983 | 18035 ft | 349 kts | 212° |
| 2026-05-08 14:29 | 48.63251 | 2.74079 | 18524 ft | 352 kts | 212° |
| 2026-05-08 14:29 | 48.61144 | 2.72163 | 18937 ft | 354 kts | 213° |
| 2026-05-08 14:29 | 48.59020 | 2.70230 | 19336 ft | 357 kts | 213° |
| 2026-05-08 14:30 | 48.56875 | 2.68284 | 19754 ft | 360 kts | 213° |
| 2026-05-08 14:30 | 48.54719 | 2.66330 | 20156 ft | 362 kts | 213° |
| 2026-05-08 14:30 | 48.52549 | 2.64365 | 20539 ft | 365 kts | 213° |
| 2026-05-08 14:30 | 48.50292 | 2.62654 | 20903 ft | 371 kts | 204° |
| 2026-05-08 14:31 | 48.47779 | 2.61613 | 21266 ft | 378 kts | 192° |
| 2026-05-08 14:31 | 48.45120 | 2.61357 | 21607 ft | 386 kts | 181° |
| 2026-05-08 14:31 | 48.42417 | 2.61560 | 21940 ft | 390 kts | 181° |
| 2026-05-08 14:32 | 48.36939 | 2.61975 | 22538 ft | 397 kts | 181° |
| 2026-05-08 14:32 | 48.34164 | 2.62180 | 22853 ft | 400 kts | 181° |
| 2026-05-08 14:32 | 48.31370 | 2.62385 | 23144 ft | 404 kts | 180° |
| 2026-05-08 14:32 | 48.28604 | 2.62986 | 23407 ft | 412 kts | 170° |
| 2026-05-08 14:33 | 48.25853 | 2.64366 | 23647 ft | 420 kts | 159° |
| 2026-05-08 14:33 | 48.23217 | 2.66366 | 23887 ft | 424 kts | 156° |
| 2026-05-08 14:33 | 48.20587 | 2.68408 | 24140 ft | 427 kts | 156° |
| 2026-05-08 14:33 | 48.17936 | 2.70448 | 24389 ft | 429 kts | 156° |
| 2026-05-08 14:34 | 48.15270 | 2.72485 | 24624 ft | 431 kts | 156° |
| 2026-05-08 14:34 | 48.12586 | 2.74530 | 24899 ft | 433 kts | 156° |
| 2026-05-08 14:34 | 48.09888 | 2.76580 | 25140 ft | 436 kts | 156° |
| 2026-05-08 14:34 | 48.07202 | 2.78583 | 25375 ft | 438 kts | 158° |
| 2026-05-08 14:35 | 48.04410 | 2.80497 | 25493 ft | 443 kts | 160° |
| 2026-05-08 14:35 | 48.01539 | 2.82321 | 25610 ft | 449 kts | 161° |
| 2026-05-08 14:35 | 47.98620 | 2.84104 | 25735 ft | 455 kts | 161° |
| 2026-05-08 14:35 | 47.95700 | 2.85873 | 25860 ft | 460 kts | 161° |
| 2026-05-08 14:36 | 47.92707 | 2.87704 | 25983 ft | 466 kts | 161° |
| 2026-05-08 14:36 | 47.89688 | 2.89582 | 26103 ft | 472 kts | 160° |
| 2026-05-08 14:36 | 47.86647 | 2.91504 | 26226 ft | 477 kts | 160° |
| 2026-05-08 14:36 | 47.83573 | 2.93458 | 26349 ft | 482 kts | 160° |
| 2026-05-08 14:37 | 47.80468 | 2.95434 | 26474 ft | 487 kts | 160° |
| 2026-05-08 14:37 | 47.77377 | 2.97400 | 26594 ft | 491 kts | 160° |
| 2026-05-08 14:37 | 47.74225 | 2.99397 | 26718 ft | 494 kts | 160° |
| 2026-05-08 14:37 | 47.71053 | 3.01397 | 26846 ft | 497 kts | 160° |
| 2026-05-08 14:38 | 47.67856 | 3.03404 | 27009 ft | 498 kts | 160° |
| 2026-05-08 14:38 | 47.64655 | 3.05407 | 27224 ft | 498 kts | 160° |
| 2026-05-08 14:38 | 47.61456 | 3.07406 | 27449 ft | 498 kts | 160° |
| 2026-05-08 14:38 | 47.58295 | 3.09381 | 27682 ft | 497 kts | 160° |
| 2026-05-08 14:39 | 47.55088 | 3.11386 | 27923 ft | 497 kts | 160° |
| 2026-05-08 14:39 | 47.51900 | 3.13377 | 28159 ft | 496 kts | 160° |
| 2026-05-08 14:39 | 47.48717 | 3.15361 | 28402 ft | 496 kts | 160° |
| 2026-05-08 14:39 | 47.45531 | 3.17343 | 28639 ft | 495 kts | 160° |
| 2026-05-08 14:40 | 47.42392 | 3.19293 | 28869 ft | 494 kts | 160° |
| 2026-05-08 14:40 | 47.39219 | 3.21259 | 29090 ft | 494 kts | 160° |
| 2026-05-08 14:40 | 47.36043 | 3.23226 | 29314 ft | 494 kts | 160° |
| 2026-05-08 14:40 | 47.32870 | 3.25194 | 29546 ft | 493 kts | 160° |
| 2026-05-08 14:41 | 47.29708 | 3.27153 | 29783 ft | 492 kts | 160° |
| 2026-05-08 14:41 | 47.26589 | 3.29082 | 30002 ft | 491 kts | 160° |
| 2026-05-08 14:41 | 47.23434 | 3.31027 | 30210 ft | 490 kts | 161° |
| 2026-05-08 14:41 | 47.20280 | 3.32967 | 30406 ft | 490 kts | 161° |
| 2026-05-08 14:42 | 47.17127 | 3.34904 | 30608 ft | 489 kts | 161° |
| 2026-05-08 14:42 | 47.13992 | 3.36829 | 30809 ft | 488 kts | 161° |
| 2026-05-08 14:42 | 47.10904 | 3.38723 | 31008 ft | 487 kts | 161° |
| 2026-05-08 14:42 | 47.07775 | 3.40637 | 31210 ft | 486 kts | 161° |
| 2026-05-08 14:43 | 47.04653 | 3.42546 | 31397 ft | 486 kts | 161° |
| 2026-05-08 14:43 | 47.01532 | 3.44452 | 31600 ft | 485 kts | 161° |
| 2026-05-08 14:43 | 46.98407 | 3.46356 | 31798 ft | 485 kts | 161° |
| 2026-05-08 14:43 | 46.95287 | 3.48253 | 31993 ft | 484 kts | 161° |
| 2026-05-08 14:44 | 46.92175 | 3.50142 | 32192 ft | 484 kts | 161° |
| 2026-05-08 14:44 | 46.89069 | 3.52030 | 32385 ft | 483 kts | 161° |
| 2026-05-08 14:44 | 46.85956 | 3.53920 | 32592 ft | 482 kts | 161° |
| 2026-05-08 14:44 | 46.82851 | 3.55801 | 32793 ft | 482 kts | 161° |
| 2026-05-08 14:45 | 46.79789 | 3.57658 | 32949 ft | 482 kts | 161° |
| 2026-05-08 14:45 | 46.76792 | 3.59906 | 32986 ft | 487 kts | 150° |
| 2026-05-08 14:45 | 46.74080 | 3.62903 | 32986 ft | 491 kts | 139° |
| 2026-05-08 14:45 | 46.71762 | 3.66591 | 32984 ft | 495 kts | 128° |
| 2026-05-08 14:46 | 46.69922 | 3.70846 | 32988 ft | 497 kts | 117° |
| 2026-05-08 14:46 | 46.68624 | 3.75517 | 32985 ft | 497 kts | 106° |
| 2026-05-08 14:46 | 46.66948 | 3.85253 | 32984 ft | 498 kts | 103° |
| 2026-05-08 14:47 | 46.65268 | 3.95054 | 32979 ft | 499 kts | 104° |
| 2026-05-08 14:47 | 46.63567 | 4.04861 | 32980 ft | 499 kts | 104° |
| 2026-05-08 14:48 | 46.61854 | 4.14675 | 32978 ft | 499 kts | 104° |
| 2026-05-08 14:48 | 46.60147 | 4.24430 | 32977 ft | 500 kts | 104° |
| 2026-05-08 14:49 | 46.58428 | 4.34229 | 32975 ft | 500 kts | 104° |
| 2026-05-08 14:49 | 46.56699 | 4.44030 | 32978 ft | 500 kts | 104° |
| 2026-05-08 14:50 | 46.54966 | 4.53773 | 32974 ft | 500 kts | 104° |
| 2026-05-08 14:50 | 46.53212 | 4.63563 | 32973 ft | 501 kts | 104° |
| 2026-05-08 14:51 | 46.51437 | 4.73382 | 32977 ft | 501 kts | 104° |
| 2026-05-08 14:51 | 46.49679 | 4.83118 | 32978 ft | 501 kts | 104° |
| 2026-05-08 14:52 | 46.47010 | 4.97821 | 32975 ft | 502 kts | 104° |
| 2026-05-08 14:53 | 46.45215 | 5.07617 | 32977 ft | 502 kts | 104° |
| 2026-05-08 14:53 | 46.43406 | 5.17409 | 32975 ft | 502 kts | 104° |
| 2026-05-08 14:54 | 46.41602 | 5.27190 | 32976 ft | 502 kts | 104° |
| 2026-05-08 14:54 | 46.39712 | 5.36954 | 32972 ft | 503 kts | 110° |
| 2026-05-08 14:55 | 46.36478 | 5.45873 | 32977 ft | 500 kts | 128° |
| 2026-05-08 14:55 | 46.32033 | 5.53595 | 32976 ft | 499 kts | 133° |
| 2026-05-08 14:56 | 46.27548 | 5.61187 | 32974 ft | 500 kts | 132° |
| 2026-05-08 14:56 | 46.23031 | 5.68835 | 32979 ft | 500 kts | 132° |
| 2026-05-08 14:57 | 46.18746 | 5.76074 | 32979 ft | 500 kts | 132° |
| 2026-05-08 14:57 | 46.14203 | 5.83697 | 32985 ft | 501 kts | 133° |
| 2026-05-08 14:58 | 46.09652 | 5.91299 | 32985 ft | 500 kts | 133° |
| 2026-05-08 14:58 | 46.05101 | 5.98907 | 32990 ft | 501 kts | 133° |
| 2026-05-08 14:59 | 46.00546 | 6.06496 | 32995 ft | 501 kts | 133° |
| 2026-05-08 14:59 | 45.93729 | 6.17807 | 32999 ft | 501 kts | 133° |
| 2026-05-08 15:00 | 45.89158 | 6.25378 | 32997 ft | 501 kts | 133° |
| 2026-05-08 15:00 | 45.84577 | 6.32928 | 33002 ft | 500 kts | 133° |
| 2026-05-08 15:01 | 45.79751 | 6.40103 | 33011 ft | 496 kts | 144° |
| 2026-05-08 15:01 | 45.74186 | 6.45881 | 33019 ft | 494 kts | 148° |
| 2026-05-08 15:02 | 45.68603 | 6.51550 | 33014 ft | 494 kts | 148° |
| 2026-05-08 15:02 | 45.62982 | 6.57253 | 33018 ft | 495 kts | 148° |
| 2026-05-08 15:03 | 45.57372 | 6.62928 | 33028 ft | 495 kts | 148° |
| 2026-05-08 15:03 | 45.52695 | 6.67656 | 33033 ft | 496 kts | 148° |
| 2026-05-08 15:04 | 45.47058 | 6.73342 | 33042 ft | 496 kts | 148° |
| 2026-05-08 15:04 | 45.41421 | 6.79008 | 33047 ft | 496 kts | 149° |
| 2026-05-08 15:05 | 45.35805 | 6.84636 | 33055 ft | 496 kts | 149° |
| 2026-05-08 15:05 | 45.30147 | 6.90289 | 33062 ft | 496 kts | 149° |
| 2026-05-08 15:06 | 45.24697 | 6.96366 | 33074 ft | 502 kts | 139° |
| 2026-05-08 15:06 | 45.19699 | 7.03310 | 33076 ft | 502 kts | 139° |
| 2026-05-08 15:07 | 45.14710 | 7.10174 | 33073 ft | 502 kts | 140° |
| 2026-05-08 15:07 | 45.09860 | 7.17335 | 33044 ft | 506 kts | 130° |
| 2026-05-08 15:08 | 45.05766 | 7.25540 | 33035 ft | 507 kts | 128° |
| 2026-05-08 15:08 | 45.01733 | 7.33651 | 33044 ft | 507 kts | 128° |
| 2026-05-08 15:09 | 44.97580 | 7.41706 | 33043 ft | 505 kts | 134° |
| 2026-05-08 15:09 | 44.92860 | 7.49074 | 33072 ft | 504 kts | 136° |
| 2026-05-08 15:10 | 44.88158 | 7.56374 | 33074 ft | 505 kts | 136° |
| 2026-05-08 15:10 | 44.83437 | 7.63674 | 33069 ft | 505 kts | 136° |
| 2026-05-08 15:11 | 44.78687 | 7.70995 | 33067 ft | 506 kts | 136° |
| 2026-05-08 15:11 | 44.73941 | 7.78311 | 33068 ft | 506 kts | 136° |
| 2026-05-08 15:12 | 44.69187 | 7.85626 | 33062 ft | 506 kts | 136° |
| 2026-05-08 15:12 | 44.64413 | 7.92931 | 33060 ft | 507 kts | 136° |
| 2026-05-08 15:13 | 44.59636 | 8.00224 | 33060 ft | 507 kts | 137° |
| 2026-05-08 15:13 | 44.54890 | 8.07468 | 33052 ft | 507 kts | 137° |
| 2026-05-08 15:14 | 44.50103 | 8.14751 | 33048 ft | 507 kts | 137° |
| 2026-05-08 15:14 | 44.45314 | 8.22006 | 33049 ft | 507 kts | 137° |
| 2026-05-08 15:15 | 44.40510 | 8.29264 | 33040 ft | 507 kts | 137° |
| 2026-05-08 15:15 | 44.35719 | 8.36502 | 33033 ft | 507 kts | 137° |
| 2026-05-08 15:16 | 44.30913 | 8.43739 | 33014 ft | 507 kts | 137° |
| 2026-05-08 15:16 | 44.26099 | 8.50959 | 33005 ft | 508 kts | 137° |
| 2026-05-08 15:17 | 44.21274 | 8.58167 | 32997 ft | 508 kts | 137° |
| 2026-05-08 15:17 | 44.16474 | 8.65330 | 32998 ft | 508 kts | 137° |
| 2026-05-08 15:18 | 44.11641 | 8.72532 | 32986 ft | 508 kts | 138° |
| 2026-05-08 15:18 | 44.06844 | 8.79673 | 32993 ft | 508 kts | 138° |
| 2026-05-08 15:19 | 44.02003 | 8.86834 | 32991 ft | 508 kts | 138° |
| 2026-05-08 15:19 | 43.97160 | 8.93977 | 32983 ft | 508 kts | 138° |
| 2026-05-08 15:20 | 43.92315 | 9.01122 | 32997 ft | 507 kts | 138° |
| 2026-05-08 15:20 | 43.87470 | 9.08242 | 33000 ft | 507 kts | 138° |
| 2026-05-08 15:21 | 43.82654 | 9.15309 | 33000 ft | 507 kts | 139° |
| 2026-05-08 15:21 | 43.77576 | 9.21996 | 32999 ft | 500 kts | 146° |
| 2026-05-08 15:22 | 43.72210 | 9.28140 | 32995 ft | 500 kts | 146° |
| 2026-05-08 15:22 | 43.66857 | 9.34279 | 32996 ft | 500 kts | 146° |
| 2026-05-08 15:23 | 43.61499 | 9.40418 | 32997 ft | 500 kts | 146° |
| 2026-05-08 15:23 | 43.56146 | 9.46539 | 32993 ft | 500 kts | 146° |
| 2026-05-08 15:24 | 43.50720 | 9.52522 | 32990 ft | 494 kts | 153° |
| 2026-05-08 15:24 | 43.44746 | 9.56975 | 32986 ft | 486 kts | 160° |
| 2026-05-08 15:25 | 43.38727 | 9.61116 | 32984 ft | 486 kts | 160° |
| 2026-05-08 15:25 | 43.32669 | 9.65283 | 32987 ft | 486 kts | 160° |
| 2026-05-08 15:26 | 43.26613 | 9.69441 | 32990 ft | 486 kts | 160° |
| 2026-05-08 15:26 | 43.20605 | 9.73566 | 32995 ft | 485 kts | 160° |
| 2026-05-08 15:27 | 43.14566 | 9.77692 | 32995 ft | 485 kts | 160° |
| 2026-05-08 15:27 | 43.08527 | 9.81812 | 32993 ft | 485 kts | 160° |
| 2026-05-08 15:28 | 43.02480 | 9.85927 | 32992 ft | 485 kts | 160° |
| 2026-05-08 15:28 | 42.96438 | 9.90038 | 32988 ft | 484 kts | 160° |
| 2026-05-08 15:29 | 42.90394 | 9.94142 | 32984 ft | 484 kts | 160° |
| 2026-05-08 15:29 | 42.84365 | 9.98224 | 32990 ft | 484 kts | 160° |
| 2026-05-08 15:30 | 42.78367 | 10.02273 | 32988 ft | 483 kts | 160° |
| 2026-05-08 15:30 | 42.72331 | 10.06350 | 32988 ft | 483 kts | 160° |
| 2026-05-08 15:31 | 42.66301 | 10.10406 | 32988 ft | 483 kts | 160° |
| 2026-05-08 15:31 | 42.60297 | 10.14422 | 32987 ft | 483 kts | 160° |
| 2026-05-08 15:32 | 42.54269 | 10.18450 | 32987 ft | 482 kts | 160° |
| 2026-05-08 15:32 | 42.48243 | 10.22477 | 32981 ft | 482 kts | 160° |
| 2026-05-08 15:33 | 42.42223 | 10.26494 | 32981 ft | 482 kts | 160° |
| 2026-05-08 15:33 | 42.36197 | 10.30509 | 32981 ft | 482 kts | 161° |
| 2026-05-08 15:34 | 42.30166 | 10.34508 | 32983 ft | 482 kts | 161° |
| 2026-05-08 15:34 | 42.24130 | 10.38496 | 32986 ft | 482 kts | 161° |
| 2026-05-08 15:35 | 42.18139 | 10.42444 | 32982 ft | 482 kts | 161° |
| 2026-05-08 15:35 | 42.12121 | 10.46409 | 32984 ft | 482 kts | 161° |
| 2026-05-08 15:36 | 42.07107 | 10.49711 | 32986 ft | 481 kts | 161° |
| 2026-05-08 15:36 | 42.00055 | 10.54345 | 32984 ft | 481 kts | 161° |
| 2026-05-08 15:37 | 41.94074 | 10.58272 | 32985 ft | 481 kts | 161° |
| 2026-05-08 15:37 | 41.88051 | 10.62210 | 32991 ft | 481 kts | 161° |
| 2026-05-08 15:38 | 41.82029 | 10.66131 | 32987 ft | 481 kts | 161° |
| 2026-05-08 15:38 | 41.76044 | 10.70029 | 32991 ft | 480 kts | 161° |
| 2026-05-08 15:39 | 41.70020 | 10.73940 | 32993 ft | 480 kts | 161° |
| 2026-05-08 15:39 | 41.63988 | 10.77839 | 32996 ft | 480 kts | 161° |
| 2026-05-08 15:40 | 41.57973 | 10.81734 | 32987 ft | 480 kts | 161° |
| 2026-05-08 15:40 | 41.51997 | 10.85602 | 32986 ft | 480 kts | 161° |
| 2026-05-08 15:41 | 41.45977 | 10.89479 | 32983 ft | 480 kts | 161° |
| 2026-05-08 15:41 | 41.39944 | 10.93358 | 32991 ft | 480 kts | 161° |
| 2026-05-08 15:42 | 41.33919 | 10.97221 | 32990 ft | 480 kts | 161° |
| 2026-05-08 15:42 | 41.27886 | 11.01073 | 32993 ft | 480 kts | 162° |
| 2026-05-08 15:43 | 41.21904 | 11.04896 | 32990 ft | 480 kts | 161° |
| 2026-05-08 15:43 | 41.15876 | 11.08749 | 32992 ft | 480 kts | 162° |
| 2026-05-08 15:44 | 41.09850 | 11.12580 | 32990 ft | 479 kts | 162° |
| 2026-05-08 15:44 | 41.03828 | 11.16399 | 32992 ft | 479 kts | 162° |
| 2026-05-08 15:45 | 40.97844 | 11.20190 | 32990 ft | 479 kts | 162° |
| 2026-05-08 15:45 | 40.91818 | 11.24012 | 32991 ft | 480 kts | 162° |
| 2026-05-08 15:46 | 40.86795 | 11.27189 | 32989 ft | 480 kts | 162° |
| 2026-05-08 15:46 | 40.80758 | 11.30986 | 32982 ft | 480 kts | 162° |
| 2026-05-08 15:47 | 40.74749 | 11.34764 | 32987 ft | 481 kts | 162° |
| 2026-05-08 15:47 | 40.68704 | 11.38565 | 32989 ft | 481 kts | 162° |
| 2026-05-08 15:48 | 40.59616 | 11.44243 | 32986 ft | 481 kts | 162° |
| 2026-05-08 15:49 | 40.53589 | 11.48007 | 32989 ft | 481 kts | 163° |
| 2026-05-08 15:49 | 40.47517 | 11.51783 | 32990 ft | 481 kts | 162° |
| 2026-05-08 15:50 | 40.41463 | 11.55550 | 32995 ft | 481 kts | 162° |
| 2026-05-08 15:50 | 40.35398 | 11.59317 | 33001 ft | 481 kts | 163° |
| 2026-05-08 15:51 | 40.29377 | 11.63048 | 33004 ft | 481 kts | 163° |
| 2026-05-08 15:51 | 40.23321 | 11.66792 | 33003 ft | 480 kts | 163° |
| 2026-05-08 15:52 | 40.17257 | 11.70527 | 33004 ft | 480 kts | 163° |
| 2026-05-08 15:52 | 40.11252 | 11.74221 | 33009 ft | 480 kts | 163° |
| 2026-05-08 15:53 | 40.05210 | 11.77937 | 33007 ft | 479 kts | 163° |
| 2026-05-08 15:53 | 39.99164 | 11.81650 | 33002 ft | 479 kts | 163° |
| 2026-05-08 15:54 | 39.93126 | 11.85339 | 33000 ft | 479 kts | 163° |
| 2026-05-08 15:54 | 39.87084 | 11.89029 | 32999 ft | 479 kts | 163° |
| 2026-05-08 15:55 | 39.81006 | 11.92588 | 32998 ft | 477 kts | 165° |
| 2026-05-08 15:55 | 39.71876 | 11.97638 | 33002 ft | 477 kts | 165° |
| 2026-05-08 15:56 | 39.65755 | 12.01038 | 32997 ft | 477 kts | 165° |
| 2026-05-08 15:56 | 39.59652 | 12.04468 | 32987 ft | 478 kts | 165° |
| 2026-05-08 15:57 | 39.53584 | 12.07875 | 32995 ft | 478 kts | 165° |
| 2026-05-08 15:57 | 39.47457 | 12.11306 | 32997 ft | 478 kts | 165° |
| 2026-05-08 15:58 | 39.41341 | 12.14714 | 32986 ft | 479 kts | 165° |
| 2026-05-08 15:58 | 39.35194 | 12.18120 | 32989 ft | 479 kts | 165° |
| 2026-05-08 15:59 | 39.29108 | 12.21501 | 32986 ft | 480 kts | 165° |
| 2026-05-08 15:59 | 39.22963 | 12.24900 | 32996 ft | 480 kts | 165° |
| 2026-05-08 16:00 | 39.16813 | 12.28302 | 32994 ft | 480 kts | 165° |
| 2026-05-08 16:00 | 39.10715 | 12.31672 | 32989 ft | 479 kts | 165° |
| 2026-05-08 16:01 | 39.04578 | 12.35054 | 32984 ft | 480 kts | 165° |
| 2026-05-08 16:01 | 38.98415 | 12.38444 | 32984 ft | 480 kts | 165° |
| 2026-05-08 16:02 | 38.92315 | 12.41788 | 33021 ft | 478 kts | 165° |
| 2026-05-08 16:02 | 38.86189 | 12.45255 | 33010 ft | 486 kts | 160° |
| 2026-05-08 16:03 | 38.80236 | 12.49472 | 32997 ft | 488 kts | 159° |
| 2026-05-08 16:03 | 38.74296 | 12.53704 | 33008 ft | 487 kts | 159° |
| 2026-05-08 16:04 | 38.68390 | 12.57884 | 33003 ft | 487 kts | 159° |
| 2026-05-08 16:04 | 38.62444 | 12.62063 | 32997 ft | 488 kts | 159° |
| 2026-05-08 16:05 | 38.56485 | 12.66248 | 32993 ft | 488 kts | 159° |
| 2026-05-08 16:05 | 38.50528 | 12.70431 | 32994 ft | 488 kts | 159° |
| 2026-05-08 16:06 | 38.44579 | 12.74601 | 32992 ft | 488 kts | 159° |
| 2026-05-08 16:06 | 38.38617 | 12.78765 | 32989 ft | 488 kts | 159° |
| 2026-05-08 16:07 | 38.32657 | 12.82924 | 32991 ft | 488 kts | 159° |
| 2026-05-08 16:07 | 38.26713 | 12.87074 | 32993 ft | 488 kts | 159° |
| 2026-05-08 16:08 | 38.20753 | 12.91240 | 33002 ft | 489 kts | 159° |
| 2026-05-08 16:08 | 38.14767 | 12.95405 | 33005 ft | 489 kts | 159° |
| 2026-05-08 16:09 | 38.09802 | 12.98843 | 33003 ft | 489 kts | 159° |
| 2026-05-08 16:09 | 38.02833 | 13.03641 | 33006 ft | 489 kts | 159° |
| 2026-05-08 16:10 | 37.96851 | 13.07761 | 33000 ft | 489 kts | 159° |
| 2026-05-08 16:10 | 37.90871 | 13.11884 | 32995 ft | 488 kts | 159° |
| 2026-05-08 16:11 | 37.84902 | 13.16000 | 32995 ft | 488 kts | 159° |
| 2026-05-08 16:11 | 37.78966 | 13.20076 | 32995 ft | 488 kts | 159° |
| 2026-05-08 16:12 | 37.72984 | 13.24169 | 32986 ft | 488 kts | 159° |
| 2026-05-08 16:12 | 37.67002 | 13.28253 | 32981 ft | 489 kts | 159° |
| 2026-05-08 16:13 | 37.61020 | 13.32347 | 32976 ft | 489 kts | 159° |
| 2026-05-08 16:13 | 37.55066 | 13.36418 | 32984 ft | 489 kts | 159° |
| 2026-05-08 16:14 | 37.49071 | 13.40494 | 32987 ft | 489 kts | 159° |
| 2026-05-08 16:14 | 37.43063 | 13.44557 | 32990 ft | 489 kts | 159° |
| 2026-05-08 16:15 | 37.37105 | 13.48592 | 32986 ft | 489 kts | 159° |
| 2026-05-08 16:15 | 37.31101 | 13.52664 | 32987 ft | 489 kts | 159° |
| 2026-05-08 16:16 | 37.25103 | 13.56730 | 32993 ft | 489 kts | 159° |
| 2026-05-08 16:16 | 37.19140 | 13.60751 | 32989 ft | 489 kts | 159° |
| 2026-05-08 16:17 | 37.14106 | 13.64128 | 32995 ft | 489 kts | 159° |
| 2026-05-08 16:17 | 37.06937 | 13.68096 | 32994 ft | 483 kts | 165° |
| 2026-05-08 16:18 | 37.00726 | 13.71291 | 32994 ft | 483 kts | 165° |
| 2026-05-08 16:18 | 36.94537 | 13.74481 | 32997 ft | 483 kts | 165° |
| 2026-05-08 16:19 | 36.88317 | 13.77673 | 32998 ft | 483 kts | 165° |
| 2026-05-08 16:19 | 36.82098 | 13.80864 | 32997 ft | 482 kts | 165° |
| 2026-05-08 16:20 | 36.78999 | 13.82452 | 32738 ft | 480 kts | 165° |
| 2026-05-08 16:20 | 36.75893 | 13.84040 | 31568 ft | 487 kts | 165° |
| 2026-05-08 16:20 | 36.72759 | 13.85637 | 30762 ft | 486 kts | 165° |
| 2026-05-08 16:20 | 36.69626 | 13.87233 | 29904 ft | 486 kts | 165° |
| 2026-05-08 16:21 | 36.66496 | 13.88825 | 28843 ft | 488 kts | 165° |
| 2026-05-08 16:21 | 36.63383 | 13.90405 | 27786 ft | 490 kts | 164° |
| 2026-05-08 16:21 | 36.60214 | 13.92015 | 26701 ft | 492 kts | 164° |
| 2026-05-08 16:21 | 36.57026 | 13.93635 | 25638 ft | 495 kts | 163° |
| 2026-05-08 16:22 | 36.53824 | 13.95264 | 24906 ft | 498 kts | 163° |
| 2026-05-08 16:22 | 36.50608 | 13.96899 | 24213 ft | 501 kts | 163° |
| 2026-05-08 16:22 | 36.47378 | 13.98542 | 23527 ft | 499 kts | 163° |
| 2026-05-08 16:22 | 36.44171 | 14.00175 | 22728 ft | 495 kts | 163° |
| 2026-05-08 16:23 | 36.40996 | 14.01791 | 21956 ft | 489 kts | 163° |
| 2026-05-08 16:23 | 36.37856 | 14.03384 | 21196 ft | 484 kts | 163° |
| 2026-05-08 16:23 | 36.34746 | 14.04956 | 20457 ft | 478 kts | 163° |
| 2026-05-08 16:23 | 36.31719 | 14.06481 | 19747 ft | 473 kts | 163° |
| 2026-05-08 16:24 | 36.28678 | 14.08007 | 19041 ft | 468 kts | 163° |
| 2026-05-08 16:24 | 36.25670 | 14.09517 | 18358 ft | 463 kts | 163° |
| 2026-05-08 16:24 | 36.22691 | 14.11017 | 17582 ft | 458 kts | 163° |
| 2026-05-08 16:24 | 36.19747 | 14.12501 | 16819 ft | 453 kts | 163° |
| 2026-05-08 16:25 | 36.16837 | 14.13965 | 16068 ft | 448 kts | 163° |
| 2026-05-08 16:25 | 36.13966 | 14.15404 | 15337 ft | 443 kts | 163° |
| 2026-05-08 16:25 | 36.11128 | 14.16824 | 14628 ft | 437 kts | 162° |
| 2026-05-08 16:25 | 36.08362 | 14.18209 | 13942 ft | 431 kts | 162° |
| 2026-05-08 16:26 | 36.05592 | 14.19598 | 13180 ft | 425 kts | 162° |
| 2026-05-08 16:26 | 36.02940 | 14.21185 | 12410 ft | 425 kts | 150° |
| 2026-05-08 16:26 | 36.00755 | 14.23645 | 11685 ft | 428 kts | 131° |
| 2026-05-08 16:26 | 35.99302 | 14.26815 | 11090 ft | 426 kts | 112° |
| 2026-05-08 16:27 | 35.98721 | 14.30371 | 10589 ft | 420 kts | 93° |
| 2026-05-08 16:27 | 35.99062 | 14.33907 | 10098 ft | 412 kts | 73° |
| 2026-05-08 16:27 | 36.00256 | 14.37069 | 9584 ft | 402 kts | 56° |
| 2026-05-08 16:27 | 36.01765 | 14.39896 | 9056 ft | 395 kts | 54° |
| 2026-05-08 16:28 | 36.03293 | 14.42695 | 8532 ft | 389 kts | 54° |
| 2026-05-08 16:28 | 36.04768 | 14.45395 | 8109 ft | 364 kts | 54° |
| 2026-05-08 16:28 | 36.06117 | 14.47880 | 7983 ft | 330 kts | 54° |
| 2026-05-08 16:28 | 36.06944 | 14.49409 | 7995 ft | 320 kts | 54° |
| 2026-05-08 16:29 | 36.08240 | 14.51614 | 8002 ft | 315 kts | 41° |
| 2026-05-08 16:29 | 36.10008 | 14.53110 | 8006 ft | 304 kts | 15° |
| 2026-05-08 16:29 | 36.12035 | 14.53560 | 7819 ft | 291 kts | 349° |
| 2026-05-08 16:29 | 36.14471 | 14.52578 | 7497 ft | 272 kts | 322° |
| 2026-05-08 16:30 | 36.15434 | 14.51593 | 7340 ft | 262 kts | 304° |
| 2026-05-08 16:30 | 36.16310 | 14.49676 | 7184 ft | 253 kts | 282° |
| 2026-05-08 16:30 | 36.16488 | 14.47565 | 7126 ft | 250 kts | 262° |
| 2026-05-08 16:30 | 36.15987 | 14.45525 | 7065 ft | 250 kts | 242° |
| 2026-05-08 16:31 | 36.14877 | 14.43852 | 7021 ft | 254 kts | 226° |
| 2026-05-08 16:31 | 36.13582 | 14.42345 | 6965 ft | 256 kts | 226° |
| 2026-05-08 16:31 | 36.12285 | 14.40841 | 6911 ft | 255 kts | 226° |
| 2026-05-08 16:31 | 36.10984 | 14.39336 | 6748 ft | 254 kts | 226° |
| 2026-05-08 16:32 | 36.09710 | 14.37861 | 6478 ft | 247 kts | 226° |
| 2026-05-08 16:32 | 36.08472 | 14.36425 | 6185 ft | 241 kts | 226° |
| 2026-05-08 16:32 | 36.07263 | 14.35019 | 5889 ft | 236 kts | 227° |
| 2026-05-08 16:32 | 36.06085 | 14.33647 | 5626 ft | 229 kts | 226° |
| 2026-05-08 16:33 | 36.04948 | 14.32326 | 5348 ft | 220 kts | 226° |
| 2026-05-08 16:33 | 36.03866 | 14.31070 | 5100 ft | 212 kts | 226° |
| 2026-05-08 16:33 | 36.02798 | 14.29852 | 4851 ft | 207 kts | 222° |
| 2026-05-08 16:33 | 36.01463 | 14.29230 | 4584 ft | 213 kts | 184° |
| 2026-05-08 16:34 | 36.00062 | 14.29890 | 4288 ft | 225 kts | 146° |
| 2026-05-08 16:34 | 35.98905 | 14.31222 | 4044 ft | 227 kts | 140° |
| 2026-05-08 16:34 | 35.97810 | 14.32649 | 3803 ft | 231 kts | 137° |
| 2026-05-08 16:34 | 35.96704 | 14.34113 | 3388 ft | 231 kts | 138° |
| 2026-05-08 16:35 | 35.95600 | 14.35509 | 3066 ft | 224 kts | 138° |
| 2026-05-08 16:35 | 35.94521 | 14.36852 | 2774 ft | 216 kts | 139° |
| 2026-05-08 16:35 | 35.93486 | 14.38139 | 2492 ft | 208 kts | 139° |
| 2026-05-08 16:35 | 35.92484 | 14.39385 | 2225 ft | 201 kts | 139° |
| 2026-05-08 16:36 | 35.91520 | 14.40584 | 1959 ft | 191 kts | 137° |
| 2026-05-08 16:36 | 35.90615 | 14.41708 | 1738 ft | 177 kts | 137° |
| 2026-05-08 16:36 | 35.89776 | 14.42751 | 1501 ft | 166 kts | 137° |
| 2026-05-08 16:36 | 35.88974 | 14.43746 | 1282 ft | 162 kts | 137° |
| 2026-05-08 16:37 | 35.88200 | 14.44706 | 1044 ft | 156 kts | 137° |
| 2026-05-08 16:37 | 35.87442 | 14.45648 | 824 ft | 149 kts | 137° |
| 2026-05-08 16:37 | 35.86723 | 14.46533 | 594 ft | 143 kts | 137° |
| 2026-05-08 16:37 | 35.86028 | 14.47387 | 467 ft | 143 kts | 135° |
| 2026-05-08 16:38 | 35.85346 | 14.48266 | 277 ft | 136 kts | 136° |
| 2026-05-08 16:38 | 35.84763 | 14.48962 | 259 ft | 90 kts | 135° |
| 2026-05-08 16:38 | 35.84433 | 14.49353 | 259 ft | 41 kts | 135° |
| 2026-05-08 16:38 | 35.84317 | 14.49504 | 258 ft | 21 kts | 133° |
| 2026-05-08 16:39 | 35.84205 | 14.49673 | 256 ft | 15 kts | 101° |
| 2026-05-08 16:39 | 35.84225 | 14.49705 | 256 ft | 3 kts | 2° |
| 2026-05-08 16:39 | 35.84296 | 14.49682 | 256 ft | 16 kts | 342° |
| 2026-05-08 16:39 | 35.84400 | 14.49642 | 258 ft | 15 kts | 343° |
| 2026-05-08 16:40 | 35.84487 | 14.49602 | 259 ft | 12 kts | 332° |
| 2026-05-08 16:40 | 35.84558 | 14.49541 | 259 ft | 13 kts | 344° |
| 2026-05-08 16:40 | 35.84667 | 14.49576 | 259 ft | 15 kts | 343° |
| 2026-05-08 16:40 | 35.84741 | 14.49504 | 259 ft | 13 kts | 321° |
| 2026-05-08 16:41 | 35.84803 | 14.49432 | 259 ft | 12 kts | 312° |
| 2026-05-08 16:41 | 35.84807 | 14.49373 | 259 ft | 5 kts | 241° |
| 2026-05-08 16:41 | 35.84787 | 14.49340 | 259 ft | 4 kts | 226° |
| 2026-05-08 16:42 | 35.84785 | 14.49338 | 259 ft | 0 kts | 225° |
| 2026-05-08 16:47 | 35.86021 | 14.47571 | 272 ft | 0 kts | 87° |
| 2026-05-08 16:47 | 35.86021 | 14.47574 | 272 ft | 0 kts | 87° |